createdAt,value
2024-01-01T00:01:56.775Z,94142.22
2024-01-01T00:04:25.509Z,94146.28
2024-01-01T00:06:52.149Z,94112.41
2024-01-01T00:09:18.640Z,94140.38
2024-01-01T00:11:46.100Z,94150.22
2024-01-01T00:14:13.801Z,94128.19
2024-01-01T00:16:40.786Z,94153.91
2024-01-01T00:19:07.476Z,94149.94
2024-01-01T00:21:34.038Z,94133.00
2024-01-01T00:24:00.537Z,94122.34
2024-01-01T00:26:27.256Z,94112.72
2024-01-01T00:28:53.959Z,94097.84
2024-01-01T00:31:20.519Z,94079.38
2024-01-01T00:33:47.281Z,94090.69
2024-01-01T00:36:14.049Z,94088.03
2024-01-01T00:38:40.775Z,94092.50
2024-01-01T00:41:07.343Z,94096.34
2024-01-01T00:43:34.992Z,94078.38
2024-01-01T00:46:01.549Z,94076.28
2024-01-01T00:48:28.318Z,94082.13
2024-01-01T00:50:54.955Z,94072.91
2024-01-01T00:53:21.545Z,94082.91
2024-01-01T00:55:48.167Z,94084.72
2024-01-01T00:58:14.768Z,94083.69
2024-01-01T01:00:41.956Z,94074.06
2024-01-01T01:03:08.633Z,94065.47
2024-01-01T01:05:35.341Z,94061.34
2024-01-01T01:08:02.307Z,94051.41
2024-01-01T01:10:29.146Z,94059.56
2024-01-01T01:12:55.964Z,94061.41
2024-01-01T01:15:26.718Z,94062.09
2024-01-01T01:17:53.769Z,94075.66
2024-01-01T01:20:20.433Z,94052.81
2024-01-01T01:22:47.000Z,94056.94
2024-01-01T01:25:13.903Z,94070.69
2024-01-01T01:27:43.654Z,94062.25
2024-01-01T01:30:10.932Z,94064.22
2024-01-01T01:32:38.138Z,94074.97
2024-01-01T01:35:05.577Z,94090.88
2024-01-01T01:37:33.293Z,94048.38
2024-01-01T01:40:00.217Z,94056.16
2024-01-01T01:42:26.788Z,94058.00
2024-01-01T01:44:53.370Z,94034.25
2024-01-01T01:47:19.945Z,94056.97
2024-01-01T01:49:46.540Z,94061.81
2024-01-01T01:52:13.107Z,94065.03
2024-01-01T01:54:39.628Z,94042.63
2024-01-01T01:57:07.375Z,94066.13
2024-01-01T01:59:33.907Z,94066.56
2024-01-01T02:02:00.473Z,94083.22
2024-01-01T02:04:27.153Z,94062.81
2024-01-01T02:06:53.661Z,94081.91
2024-01-01T02:09:20.491Z,94075.53
2024-01-01T02:11:47.170Z,94056.91
2024-01-01T02:14:15.123Z,94078.19
2024-01-01T02:16:41.691Z,94060.66
2024-01-01T02:19:20.188Z,94083.53
2024-01-01T02:21:47.514Z,94077.53
2024-01-01T02:24:16.802Z,94073.47
2024-01-01T02:26:44.611Z,94081.44
2024-01-01T02:29:11.737Z,94091.88
2024-01-01T02:31:38.431Z,94093.34
2024-01-01T02:34:05.184Z,94075.44
2024-01-01T02:36:36.903Z,94078.34
2024-01-01T02:39:06.866Z,94089.88
2024-01-01T02:41:34.019Z,94089.22
2024-01-01T02:44:00.791Z,94083.88
2024-01-01T02:46:27.515Z,94096.97
2024-01-01T02:48:54.057Z,94102.88
2024-01-01T02:51:20.616Z,94079.69
2024-01-01T02:53:47.152Z,94081.91
2024-01-01T02:56:20.507Z,94113.25
2024-01-01T02:58:47.286Z,94128.91
2024-01-01T03:01:14.037Z,94117.41
2024-01-01T03:03:40.689Z,94120.50
2024-01-01T03:06:10.431Z,94123.75
2024-01-01T03:08:39.924Z,94133.38
2024-01-01T03:11:06.690Z,94098.16
2024-01-01T03:13:33.536Z,94124.72
2024-01-01T03:16:00.419Z,94133.97
2024-01-01T03:18:27.124Z,94140.47
2024-01-01T03:20:53.793Z,94131.44
2024-01-01T03:23:20.402Z,94137.16
2024-01-01T03:25:47.267Z,94135.72
2024-01-01T03:28:13.833Z,94114.88
2024-01-01T03:30:40.621Z,94141.66
2024-01-01T03:33:07.503Z,94135.00
2024-01-01T03:35:34.238Z,94116.59
2024-01-01T03:38:00.838Z,94139.75
2024-01-01T03:40:27.401Z,94141.94
2024-01-01T03:42:54.684Z,94155.00
2024-01-01T03:45:22.652Z,94116.28
2024-01-01T03:47:49.530Z,94123.59
2024-01-01T03:50:17.802Z,94118.94
2024-01-01T03:52:44.793Z,94123.91
2024-01-01T03:55:11.513Z,94138.63
2024-01-01T03:57:38.092Z,94148.91
2024-01-01T04:00:07.968Z,94134.59
2024-01-01T04:02:35.489Z,94149.03
2024-01-01T04:05:02.323Z,94148.59
2024-01-01T04:07:29.388Z,94132.47
2024-01-01T04:09:55.969Z,94129.59
2024-01-01T04:12:22.576Z,94134.75
2024-01-01T04:14:49.213Z,94128.91
2024-01-01T04:17:15.861Z,94127.28
2024-01-01T04:19:45.844Z,94125.81
2024-01-01T04:22:13.408Z,94132.59
2024-01-01T04:24:40.707Z,94147.97
2024-01-01T04:27:07.399Z,94131.53
2024-01-01T04:29:34.006Z,94132.78
2024-01-01T04:32:01.004Z,94117.94
2024-01-01T04:34:27.539Z,94139.00
2024-01-01T04:36:54.079Z,94118.44
2024-01-01T04:39:20.701Z,94154.59
2024-01-01T04:41:47.453Z,94124.78
2024-01-01T04:44:14.182Z,94135.59
2024-01-01T04:46:41.374Z,94151.06
2024-01-01T04:49:08.034Z,94137.56
2024-01-01T04:51:34.605Z,94140.72
2024-01-01T04:54:01.146Z,94155.66
2024-01-01T04:56:27.850Z,94141.84
2024-01-01T04:58:55.440Z,94141.66
2024-01-01T05:01:22.207Z,94159.22
2024-01-01T05:03:48.839Z,94158.03
2024-01-01T05:06:15.655Z,94157.97
2024-01-01T05:08:42.260Z,94159.38
2024-01-01T05:11:08.890Z,94163.06
2024-01-01T05:13:35.585Z,94156.56
2024-01-01T05:16:02.326Z,94164.75
2024-01-01T05:18:29.140Z,94167.66
2024-01-01T05:20:55.717Z,94165.03
2024-01-01T05:23:23.132Z,94176.50
2024-01-01T05:25:49.788Z,94164.31
2024-01-01T05:28:16.333Z,94180.88
2024-01-01T05:30:43.120Z,94188.00
2024-01-01T05:33:09.712Z,94184.13
2024-01-01T05:35:38.047Z,94193.75
2024-01-01T05:38:05.148Z,94195.22
2024-01-01T05:40:31.988Z,94187.09
2024-01-01T05:42:58.600Z,94168.75
2024-01-01T05:45:25.303Z,94176.75
2024-01-01T05:47:55.239Z,94203.25
2024-01-01T05:50:23.092Z,94216.78
2024-01-01T05:52:49.673Z,94212.69
2024-01-01T05:55:16.205Z,94219.81
2024-01-01T05:57:42.863Z,94190.97
2024-01-01T06:00:10.902Z,94220.75
2024-01-01T06:02:37.492Z,94221.38
2024-01-01T06:05:04.331Z,94216.41
2024-01-01T06:07:30.921Z,94215.00
2024-01-01T06:09:58.802Z,94202.53
2024-01-01T06:12:25.346Z,94205.25
2024-01-01T06:14:51.886Z,94197.19
2024-01-01T06:17:20.150Z,94216.19
2024-01-01T06:19:49.940Z,94222.25
2024-01-01T06:22:16.661Z,94206.59
2024-01-01T06:24:43.208Z,94228.59
2024-01-01T06:27:09.916Z,94212.22
2024-01-01T06:29:36.553Z,94199.41
2024-01-01T06:32:03.364Z,94223.69
2024-01-01T06:34:30.339Z,94248.16
2024-01-01T06:36:56.939Z,94233.44
2024-01-01T06:39:23.621Z,94246.94
2024-01-01T06:41:50.139Z,94220.41
2024-01-01T06:44:16.739Z,94231.34
2024-01-01T06:46:43.297Z,94219.59
2024-01-01T06:49:09.911Z,94247.34
2024-01-01T06:51:36.686Z,94236.94
2024-01-01T06:54:03.205Z,94243.69
2024-01-01T06:56:29.887Z,94238.81
2024-01-01T06:58:56.528Z,94240.28
2024-01-01T07:01:23.217Z,94250.25
2024-01-01T07:03:49.776Z,94244.19
2024-01-01T07:06:16.679Z,94251.78
2024-01-01T07:08:43.341Z,94259.56
2024-01-01T07:11:09.914Z,94276.94
2024-01-01T07:13:36.927Z,94267.31
2024-01-01T07:16:03.640Z,94249.94
2024-01-01T07:18:30.325Z,94275.66
2024-01-01T07:20:57.509Z,94288.13
2024-01-01T07:23:24.332Z,94286.06
2024-01-01T07:25:52.306Z,94289.16
2024-01-01T07:28:19.187Z,94295.63
2024-01-01T07:30:45.902Z,94284.59
2024-01-01T07:33:12.522Z,94300.72
2024-01-01T07:35:39.289Z,94300.72
2024-01-01T07:38:06.237Z,94308.63
2024-01-01T07:40:33.058Z,94302.50
2024-01-01T07:43:00.311Z,94298.00
2024-01-01T07:45:27.002Z,94306.22
2024-01-01T07:47:53.718Z,94299.47
2024-01-01T07:50:22.156Z,94285.56
2024-01-01T07:52:49.287Z,94288.38
2024-01-01T07:55:16.008Z,94282.53
2024-01-01T07:57:42.660Z,94265.97
2024-01-01T08:00:11.091Z,94286.16
2024-01-01T08:02:38.109Z,94260.81
2024-01-01T08:05:05.100Z,94276.50
2024-01-01T08:07:31.711Z,94253.03
2024-01-01T08:09:58.391Z,94267.34
2024-01-01T08:12:24.967Z,94277.53
2024-01-01T08:14:51.595Z,94275.09
2024-01-01T08:17:18.341Z,94273.41
2024-01-01T08:19:45.045Z,94277.31
2024-01-01T08:22:11.784Z,94263.38
2024-01-01T08:24:38.336Z,94278.28
2024-01-01T08:27:05.983Z,94261.34
2024-01-01T08:29:35.126Z,94273.38
2024-01-01T08:32:03.222Z,94272.88
2024-01-01T08:34:32.886Z,94260.06
2024-01-01T08:37:03.880Z,94239.19
2024-01-01T08:39:30.573Z,94246.16
2024-01-01T08:41:57.134Z,94265.09
2024-01-01T08:44:23.721Z,94260.25
2024-01-01T08:46:50.608Z,94264.91
2024-01-01T08:49:17.353Z,94264.81
2024-01-01T08:51:45.731Z,94239.75
2024-01-01T08:54:14.631Z,94271.41
2024-01-01T08:56:42.639Z,94269.84
2024-01-01T08:59:10.877Z,94249.66
2024-01-01T09:01:37.632Z,94274.66
2024-01-01T09:04:06.271Z,94247.34
2024-01-01T09:06:33.752Z,94282.44
2024-01-01T09:09:01.883Z,94251.50
2024-01-01T09:11:29.182Z,94282.56
2024-01-01T09:13:56.308Z,94238.53
2024-01-01T09:16:31.990Z,94271.78
2024-01-01T09:19:00.737Z,94240.03
2024-01-01T09:21:28.947Z,94265.03
2024-01-01T09:24:02.833Z,94253.66
2024-01-01T09:26:31.007Z,94268.97
2024-01-01T09:28:58.122Z,94267.50
2024-01-01T09:31:25.042Z,94296.22
2024-01-01T09:33:51.871Z,94268.72
2024-01-01T09:36:19.942Z,94268.72
2024-01-01T09:38:46.856Z,94272.91
2024-01-01T09:41:13.780Z,94261.25
2024-01-01T09:43:46.549Z,94259.88
2024-01-01T09:46:14.566Z,94258.81
2024-01-01T09:48:44.190Z,94278.31
2024-01-01T09:51:14.835Z,94284.16
2024-01-01T09:54:03.966Z,94279.41
2024-01-01T09:56:35.735Z,94274.78
2024-01-01T09:59:03.272Z,94302.19
2024-01-01T10:01:32.667Z,94263.47
2024-01-01T10:04:05.235Z,94260.59
2024-01-01T10:06:33.658Z,94268.66
2024-01-01T10:11:57.766Z,94307.47
2024-01-01T10:14:24.337Z,94308.97
2024-01-01T10:27:45.971Z,94310.16
2024-01-01T10:30:23.194Z,94314.63
2024-01-01T10:33:07.364Z,94314.84
2024-01-01T10:35:43.371Z,94319.97
2024-01-01T10:38:37.027Z,94274.38
2024-01-01T10:41:06.902Z,94290.88
2024-01-01T10:43:49.112Z,94308.00
2024-01-01T10:46:23.574Z,94287.94
2024-01-01T10:48:56.573Z,94284.59
2024-01-01T10:51:51.916Z,94280.75
2024-01-01T10:54:43.374Z,94296.81
2024-01-01T10:57:51.242Z,94266.31
2024-01-01T11:00:28.422Z,94294.00
2024-01-01T11:02:55.336Z,94253.66
2024-01-01T11:05:31.045Z,94303.69
2024-01-01T11:08:01.427Z,94302.00
2024-01-01T11:10:46.397Z,94306.56
2024-01-01T11:13:33.559Z,94304.72
2024-01-01T11:16:06.138Z,94305.78
2024-01-01T11:18:33.862Z,94304.38
2024-01-01T11:21:03.725Z,94298.22
2024-01-01T11:23:46.279Z,94294.25
2024-01-01T11:26:25.569Z,94296.00
2024-01-01T11:28:59.078Z,94295.66
2024-01-01T11:31:26.077Z,94293.91
2024-01-01T11:34:17.096Z,94289.59
2024-01-01T11:36:48.686Z,94287.16
2024-01-01T11:39:15.723Z,94281.81
2024-01-01T11:41:42.306Z,94286.44
2024-01-01T11:44:12.936Z,94286.19
2024-01-01T11:46:39.547Z,94284.81
2024-01-01T11:49:06.228Z,94284.41
2024-01-01T11:51:34.630Z,94271.19
2024-01-01T11:54:07.850Z,94287.31
2024-01-01T11:56:34.439Z,94301.72
2024-01-01T11:59:00.934Z,94289.69
2024-01-01T12:01:27.646Z,94280.63
2024-01-01T12:03:54.873Z,94283.28
2024-01-01T12:06:21.583Z,94271.03
2024-01-01T12:08:48.155Z,94283.13
2024-01-01T12:11:17.476Z,94275.19
2024-01-01T12:13:55.789Z,94279.91
2024-01-01T12:16:22.281Z,94274.38
2024-01-01T12:18:48.806Z,94283.81
2024-01-01T12:48:22.197Z,94240.66
2024-01-01T12:51:03.970Z,94221.81
2024-01-01T13:07:05.957Z,94241.97
2024-01-01T13:18:36.073Z,94196.94
2024-01-01T13:37:45.274Z,94212.00
2024-01-01T13:40:24.629Z,94172.38
2024-01-01T14:06:35.868Z,94186.69
2024-01-01T14:15:18.368Z,94176.72
2024-01-01T14:27:04.872Z,94186.88
2024-01-01T14:38:21.616Z,94222.88
2024-01-01T15:43:11.881Z,94325.53
2024-01-01T16:22:12.226Z,94376.59
2024-01-01T16:25:08.844Z,94230.63
2024-01-01T16:30:42.701Z,94380.72
2024-01-01T16:33:09.886Z,94377.78
2024-01-01T16:35:40.666Z,94378.16
2024-01-01T16:38:08.329Z,94365.41
2024-01-01T16:40:35.426Z,94410.50
2024-01-01T16:43:02.427Z,94402.41
2024-01-01T16:45:29.156Z,94380.28
2024-01-01T16:47:56.370Z,94408.72
2024-01-01T16:50:24.629Z,94362.91
2024-01-01T16:52:53.927Z,94375.09
2024-01-01T16:55:22.212Z,94369.16
2024-01-01T16:57:49.294Z,94363.47
2024-01-01T17:00:16.818Z,94356.72
2024-01-01T17:02:44.207Z,94371.84
2024-01-01T17:05:11.550Z,94370.09
2024-01-01T17:07:38.705Z,94365.56
2024-01-01T17:10:05.947Z,94372.75
2024-01-01T17:12:32.994Z,94358.53
2024-01-01T17:15:01.157Z,94388.94
2024-01-01T17:17:28.290Z,94340.13
2024-01-01T17:19:56.455Z,94405.81
2024-01-01T17:22:23.497Z,94351.72
2024-01-01T17:24:50.451Z,94350.72
2024-01-01T17:27:17.233Z,94390.91
2024-01-01T17:32:27.595Z,94352.22
2024-01-01T17:34:54.591Z,94357.94
2024-01-01T17:37:21.943Z,94358.31
2024-01-01T17:39:52.168Z,94343.03
2024-01-01T17:42:22.565Z,94343.91
2024-01-01T17:44:58.184Z,94390.19
2024-01-01T17:47:26.137Z,94360.25
2024-01-01T17:49:52.752Z,94389.03
2024-01-01T17:52:20.685Z,94388.22
2024-01-01T17:54:50.182Z,94389.84
2024-01-01T17:57:18.566Z,94352.09
2024-01-01T17:59:48.307Z,94337.19
2024-01-01T18:02:17.679Z,94345.97
2024-01-01T18:04:50.596Z,94361.50
2024-01-01T18:07:18.563Z,94359.09
2024-01-01T18:09:45.796Z,94381.13
2024-01-01T18:12:12.460Z,94388.66
2024-01-01T18:14:39.771Z,94349.09
2024-01-01T18:17:07.057Z,94350.84
2024-01-01T18:19:37.161Z,94365.50
2024-01-01T18:22:05.020Z,94358.59
2024-01-01T18:24:34.670Z,94374.78
2024-01-01T18:27:12.110Z,94397.63
2024-01-01T18:29:41.807Z,94426.47
2024-01-01T18:32:08.634Z,94366.22
2024-01-01T19:05:23.736Z,94370.75
2024-01-01T19:07:59.510Z,94399.94
2024-01-01T19:13:10.925Z,94426.94
2024-01-01T19:15:39.781Z,94400.38
2024-01-01T19:18:06.917Z,94430.78
2024-01-01T19:20:34.488Z,94422.84
2024-01-01T19:23:01.376Z,94430.78
2024-01-01T19:25:35.817Z,94441.63
2024-01-01T19:28:10.335Z,94431.38
2024-01-01T19:30:40.291Z,94432.56
2024-01-01T19:33:25.579Z,94409.91
2024-01-01T19:35:56.189Z,94418.44
2024-01-01T19:38:26.671Z,94407.03
2024-01-01T19:40:56.732Z,94385.19
2024-01-01T19:43:29.731Z,94413.81
2024-01-01T19:46:01.320Z,94401.75
2024-01-01T19:48:30.796Z,94358.69
2024-01-01T19:51:00.816Z,94393.63
2024-01-01T19:53:33.827Z,94364.16
2024-01-01T19:56:06.666Z,94385.59
2024-01-01T20:01:18.391Z,94393.75
2024-01-01T20:03:51.479Z,94411.09
2024-01-01T20:09:17.401Z,94423.22
2024-01-01T20:11:53.837Z,94395.06
2024-01-01T20:14:27.046Z,94386.09
2024-01-01T20:16:56.641Z,94422.22
2024-01-01T20:19:26.202Z,94417.91
2024-01-01T20:21:56.289Z,94411.59
2024-01-01T20:24:26.598Z,94375.41
2024-01-01T20:26:57.013Z,94356.63
2024-01-01T20:32:20.467Z,94349.72
2024-01-01T20:37:43.678Z,94337.50
2024-01-01T20:40:11.147Z,94323.03
2024-01-01T20:42:39.514Z,94330.81
2024-01-01T20:45:08.631Z,94347.75
2024-01-01T20:50:40.663Z,94327.28
2024-01-01T20:53:09.443Z,94309.97
2024-01-01T20:55:37.609Z,94294.66
2024-01-01T20:58:09.730Z,94289.34
2024-01-01T21:03:23.427Z,94286.09
2024-01-01T21:09:20.759Z,94295.88
2024-01-01T21:33:57.458Z,94222.63
2024-01-01T21:39:27.803Z,94246.94
2024-01-01T21:53:53.667Z,94206.75
2024-01-01T21:56:23.579Z,94195.94
2024-01-01T21:58:50.882Z,94200.44
2024-01-01T22:01:17.812Z,94219.41
2024-01-01T22:03:44.726Z,94205.09
2024-01-01T22:06:11.742Z,94240.78
2024-01-01T22:08:39.338Z,94213.88
2024-01-01T22:11:07.328Z,94199.59
2024-01-01T22:13:34.248Z,94224.72
2024-01-01T22:16:02.140Z,94237.31
2024-01-01T22:18:29.751Z,94206.75
2024-01-01T22:20:57.003Z,94218.59
2024-01-01T22:23:24.953Z,94219.78
2024-01-01T22:25:53.053Z,94217.13
2024-01-01T22:28:21.712Z,94245.06
2024-01-01T22:30:56.758Z,94207.56
2024-01-01T22:33:24.937Z,94222.69
2024-01-01T22:38:40.909Z,94267.78
2024-01-01T22:41:08.229Z,94242.69
2024-01-01T22:43:51.396Z,94251.47
2024-01-01T22:46:18.371Z,94230.28
2024-01-01T22:48:45.254Z,94260.66
2024-01-01T22:51:12.932Z,94249.66
2024-01-01T22:56:20.775Z,94247.19
2024-01-01T22:58:50.073Z,94267.78
2024-01-01T23:01:17.828Z,94263.91
2024-01-01T23:03:45.253Z,94290.44
2024-01-01T23:06:14.666Z,94264.13
2024-01-01T23:08:42.198Z,94249.00
2024-01-01T23:46:42.539Z,94213.50
2024-01-01T23:54:48.025Z,94240.19
